createdAt,value
2018-12-22T00:00:00.414Z,50.20
2018-12-22T00:02:28.643Z,50.20
2018-12-22T00:04:56.927Z,50.20
2018-12-22T00:07:25.780Z,50.80
2018-12-22T00:09:53.870Z,50.20
2018-12-22T00:12:22.980Z,50.10
2018-12-22T00:14:50.782Z,50.10
2018-12-22T00:17:19.544Z,50.10
2018-12-22T00:19:47.577Z,50.10
2018-12-22T00:22:15.233Z,50.10
2018-12-22T00:24:43.077Z,50.80
2018-12-22T00:27:10.680Z,50.10
2018-12-22T00:29:38.519Z,50.10
2018-12-22T00:32:06.184Z,50.20
2018-12-22T00:34:33.868Z,50.10
2018-12-22T00:37:02.819Z,50.10
2018-12-22T00:39:30.666Z,50.10
2018-12-22T00:41:58.300Z,50.10
2018-12-22T00:44:25.937Z,50.10
2018-12-22T00:46:53.708Z,50.10
2018-12-22T00:49:21.647Z,50.10
2018-12-22T00:51:49.271Z,50.10
2018-12-22T00:55:10.914Z,50.20
2018-12-22T00:57:39.386Z,50.20
2018-12-22T01:00:07.795Z,50.20
2018-12-22T01:02:36.086Z,50.20
2018-12-22T01:05:04.363Z,50.10
2018-12-22T01:07:32.263Z,50.10
2018-12-22T01:09:59.899Z,50.10
2018-12-22T01:12:27.538Z,50.10
2018-12-22T01:14:55.191Z,50.20
2018-12-22T01:17:22.788Z,50.10
2018-12-22T01:19:50.474Z,49.80
2018-12-22T01:22:18.274Z,50.10
2018-12-22T01:24:45.970Z,50.10
2018-12-22T01:27:13.581Z,50.10
2018-12-22T01:29:41.275Z,50.10
2018-12-22T01:32:09.026Z,50.10
2018-12-22T01:34:36.668Z,50.10
2018-12-22T01:37:04.530Z,50.10
2018-12-22T01:39:32.286Z,50.10
2018-12-22T01:42:00.025Z,50.10
2018-12-22T01:44:28.082Z,50.10
2018-12-22T01:46:55.782Z,50.10
2018-12-22T01:49:23.454Z,50.20
2018-12-22T01:51:51.058Z,50.10
2018-12-22T01:54:18.683Z,50.10
2018-12-22T01:56:46.271Z,50.10
2018-12-22T01:59:14.184Z,50.10
2018-12-22T02:01:42.011Z,50.10
2018-12-22T02:04:09.643Z,50.10
2018-12-22T02:06:37.838Z,50.10
2018-12-22T02:09:07.032Z,50.10
2018-12-22T02:11:34.606Z,50.10
2018-12-22T02:14:02.537Z,50.10
2018-12-22T02:16:30.395Z,50.10
2018-12-22T02:18:58.033Z,50.10
2018-12-22T02:21:25.887Z,50.10
2018-12-22T02:23:53.719Z,50.10
2018-12-22T02:26:21.413Z,50.10
2018-12-22T02:28:56.370Z,50.10
2018-12-22T02:31:18.897Z,50.10
2018-12-22T02:33:46.512Z,50.10
2018-12-22T02:36:14.095Z,50.10
2018-12-22T02:38:41.665Z,50.10
2018-12-22T02:41:09.353Z,50.10
2018-12-22T02:43:36.977Z,50.50
2018-12-22T02:46:04.717Z,50.10
2018-12-22T02:48:32.469Z,50.10
2018-12-22T02:51:00.043Z,50.10
2018-12-22T02:53:27.682Z,50.10
2018-12-22T02:55:55.400Z,50.10
2018-12-22T02:58:23.070Z,50.10
2018-12-22T03:00:50.689Z,50.10
2018-12-22T03:03:18.253Z,50.10
2018-12-22T03:05:45.910Z,50.00
2018-12-22T03:08:13.536Z,50.00
2018-12-22T03:10:41.321Z,50.10
2018-12-22T03:13:09.095Z,50.00
2018-12-22T03:15:36.901Z,50.00
2018-12-22T03:18:04.502Z,50.10
2018-12-22T03:20:32.144Z,50.00
2018-12-22T03:22:59.827Z,50.00
2018-12-22T03:25:27.418Z,49.80
2018-12-22T03:27:55.252Z,50.00
2018-12-22T03:30:23.825Z,50.00
2018-12-22T03:32:51.652Z,50.00
2018-12-22T03:35:19.379Z,50.00
2018-12-22T03:37:47.235Z,50.00
2018-12-22T03:40:14.927Z,50.00
2018-12-22T03:42:42.584Z,50.00
2018-12-22T03:45:10.302Z,50.00
2018-12-22T03:47:38.533Z,50.00
2018-12-22T03:50:06.320Z,50.00
2018-12-22T03:52:33.912Z,50.00
2018-12-22T03:55:01.674Z,50.00
2018-12-22T03:57:29.357Z,50.00
2018-12-22T03:59:56.966Z,50.00
2018-12-22T04:02:24.579Z,50.00
2018-12-22T04:04:52.247Z,50.10
2018-12-22T04:07:19.840Z,50.00
2018-12-22T04:09:47.428Z,50.00
2018-12-22T04:12:15.068Z,50.00
2018-12-22T04:14:42.683Z,50.00
2018-12-22T04:17:10.207Z,50.00
2018-12-22T04:19:38.641Z,50.00
2018-12-22T04:22:06.368Z,50.00
2018-12-22T04:24:34.022Z,50.00
2018-12-22T04:27:01.649Z,50.00
2018-12-22T04:29:33.813Z,50.10
2018-12-22T04:31:59.093Z,50.00
2018-12-22T04:34:26.717Z,50.00
2018-12-22T04:36:54.383Z,50.00
2018-12-22T04:39:21.914Z,50.10
2018-12-22T04:41:49.587Z,50.00
2018-12-22T04:44:17.243Z,50.00
2018-12-22T04:46:44.856Z,50.00
2018-12-22T04:49:12.619Z,50.00
2018-12-22T04:51:40.366Z,50.10
2018-12-22T04:54:07.919Z,50.00
2018-12-22T04:56:35.614Z,50.00
2018-12-22T04:59:03.204Z,50.00
2018-12-22T05:01:30.975Z,50.00
2018-12-22T05:03:58.512Z,50.00
2018-12-22T05:06:26.084Z,50.00
2018-12-22T05:08:53.647Z,50.00
2018-12-22T05:11:21.222Z,50.00
2018-12-22T05:13:48.850Z,50.20
2018-12-22T05:16:16.772Z,50.00
2018-12-22T05:18:44.581Z,50.00
2018-12-22T05:21:12.656Z,50.00
2018-12-22T05:23:40.325Z,50.40
2018-12-22T05:26:08.085Z,50.00
2018-12-22T05:28:35.937Z,50.00
2018-12-22T05:31:03.496Z,50.00
2018-12-22T05:33:31.071Z,50.00
2018-12-22T05:35:59.051Z,50.00
2018-12-22T05:38:27.235Z,50.00
2018-12-22T05:40:55.103Z,50.00
2018-12-22T05:43:22.786Z,50.00
2018-12-22T05:45:50.314Z,50.00
2018-12-22T05:48:18.097Z,50.00
2018-12-22T05:50:45.630Z,50.00
2018-12-22T05:53:14.218Z,50.00
2018-12-22T05:55:41.767Z,50.00
2018-12-22T05:58:09.514Z,50.00
2018-12-22T06:00:37.150Z,50.00
2018-12-22T06:03:05.008Z,49.90
2018-12-22T06:05:32.604Z,50.00
2018-12-22T06:08:00.232Z,50.00
2018-12-22T06:10:27.868Z,50.00
2018-12-22T06:16:33.216Z,49.90
2018-12-22T06:19:01.507Z,49.50
2018-12-22T06:21:29.317Z,49.90
2018-12-22T06:23:57.720Z,50.30
2018-12-22T06:26:26.425Z,50.00
2018-12-22T06:28:56.707Z,49.90
2018-12-22T06:31:26.760Z,50.00
2018-12-22T06:33:54.641Z,49.90
2018-12-22T06:36:23.902Z,50.00
2018-12-22T06:38:51.613Z,49.90
2018-12-22T06:41:19.222Z,50.00
2018-12-22T06:43:46.800Z,49.90
2018-12-22T06:46:14.413Z,50.00
2018-12-22T06:48:41.938Z,50.00
2018-12-22T06:51:12.581Z,49.90
2018-12-22T06:53:44.827Z,49.90
2018-12-22T06:56:13.825Z,49.90
2018-12-22T06:58:41.621Z,50.60
2018-12-22T07:01:09.305Z,49.90
2018-12-22T07:03:37.133Z,49.90
2018-12-22T07:06:04.788Z,49.90
2018-12-22T07:08:32.620Z,49.90
2018-12-22T07:11:00.403Z,49.90
2018-12-22T07:13:27.999Z,49.90
2018-12-22T07:15:55.854Z,49.90
2018-12-22T07:18:23.476Z,49.90
2018-12-22T07:20:51.323Z,49.90
2018-12-22T07:23:19.109Z,49.90
2018-12-22T07:25:46.736Z,49.90
2018-12-22T07:28:14.357Z,49.90
2018-12-22T07:30:42.100Z,49.90
2018-12-22T07:33:09.778Z,49.90
2018-12-22T07:35:37.483Z,49.90
2018-12-22T07:38:06.053Z,50.50
2018-12-22T07:40:33.693Z,49.90
2018-12-22T07:43:01.357Z,49.90
2018-12-22T07:45:29.423Z,49.90
2018-12-22T07:47:57.053Z,49.90
2018-12-22T07:50:24.673Z,49.90
2018-12-22T07:52:52.583Z,49.90
2018-12-22T07:55:20.414Z,49.90
2018-12-22T07:57:48.157Z,49.90
2018-12-22T08:00:15.953Z,49.90
2018-12-22T08:02:43.538Z,49.90
2018-12-22T08:05:11.164Z,49.80
2018-12-22T08:07:39.529Z,49.90
2018-12-22T08:10:07.485Z,49.80
2018-12-22T08:12:35.439Z,49.80
2018-12-22T08:15:03.098Z,50.50
2018-12-22T08:17:30.712Z,49.80
2018-12-22T08:19:58.577Z,49.80
2018-12-22T08:22:26.328Z,49.90
2018-12-22T08:24:53.990Z,49.80
2018-12-22T08:27:21.539Z,49.90
2018-12-22T08:29:49.184Z,49.80
2018-12-22T08:32:16.917Z,49.80
2018-12-22T08:34:44.778Z,49.80
2018-12-22T08:37:12.485Z,49.80
2018-12-22T08:39:40.364Z,49.80
2018-12-22T08:42:08.047Z,49.80
2018-12-22T08:44:35.652Z,49.80
2018-12-22T08:47:03.286Z,49.80
2018-12-22T08:49:31.134Z,49.80
2018-12-22T08:51:58.879Z,49.90
2018-12-22T08:54:26.505Z,49.80
2018-12-22T08:56:54.603Z,49.80
2018-12-22T08:59:22.265Z,49.80
2018-12-22T09:01:49.819Z,49.90
2018-12-22T09:04:17.550Z,49.80
2018-12-22T09:06:45.354Z,49.80
2018-12-22T09:09:13.057Z,49.90
2018-12-22T09:11:40.907Z,49.80
2018-12-22T09:14:08.675Z,49.80
2018-12-22T09:16:36.616Z,49.80
2018-12-22T09:19:04.284Z,49.80
2018-12-22T09:21:31.852Z,49.80
2018-12-22T09:23:59.469Z,49.80
2018-12-22T09:26:27.158Z,49.80
2018-12-22T09:28:54.691Z,49.70
2018-12-22T09:31:22.412Z,49.80
2018-12-22T09:33:50.033Z,49.80
2018-12-22T09:36:20.535Z,49.80
2018-12-22T09:38:48.811Z,49.70
2018-12-22T09:41:16.509Z,49.70
2018-12-22T09:43:44.419Z,49.70
2018-12-22T09:46:12.141Z,49.70
2018-12-22T09:48:40.047Z,49.70
2018-12-22T09:51:07.745Z,49.80
2018-12-22T09:53:36.045Z,49.80
2018-12-22T09:56:04.057Z,49.70
2018-12-22T09:58:31.643Z,49.80
2018-12-22T10:00:59.358Z,49.80
2018-12-22T10:03:26.951Z,49.70
2018-12-22T10:05:54.498Z,49.80
2018-12-22T10:08:22.453Z,49.70
2018-12-22T10:10:50.131Z,49.70
2018-12-22T10:13:18.079Z,49.70
2018-12-22T10:15:45.925Z,49.70
2018-12-22T10:18:13.809Z,49.60
2018-12-22T10:20:41.469Z,49.70
2018-12-22T10:23:09.300Z,49.70
2018-12-22T10:25:39.611Z,49.50
2018-12-22T10:28:07.355Z,49.60
2018-12-22T10:30:35.396Z,49.50
2018-12-22T10:33:05.003Z,49.60
2018-12-22T10:35:32.572Z,49.60
2018-12-22T10:38:00.162Z,49.50
2018-12-22T10:40:27.777Z,49.60
2018-12-22T10:42:55.467Z,49.50
2018-12-22T10:45:23.107Z,50.00
2018-12-22T10:47:50.670Z,49.50
2018-12-22T10:50:18.261Z,49.50
2018-12-22T10:52:45.866Z,49.50
2018-12-22T10:55:13.435Z,49.50
2018-12-22T10:57:41.011Z,49.50
2018-12-22T11:00:12.735Z,49.50
2018-12-22T11:02:40.629Z,49.50
2018-12-22T11:05:10.441Z,49.50
2018-12-22T11:07:38.356Z,49.50
2018-12-22T11:10:09.351Z,49.40
2018-12-22T11:12:37.081Z,49.40
2018-12-22T11:15:04.927Z,49.50
2018-12-22T11:17:32.517Z,49.50
2018-12-22T11:20:00.269Z,49.40
2018-12-22T11:22:27.967Z,49.40
2018-12-22T11:24:55.531Z,49.40
2018-12-22T11:27:23.217Z,49.40
2018-12-22T11:29:50.935Z,49.50
2018-12-22T11:32:19.805Z,49.50
2018-12-22T11:34:51.551Z,49.60
2018-12-22T11:37:22.821Z,49.60
2018-12-22T11:39:52.599Z,49.40
2018-12-22T11:42:20.797Z,49.30
2018-12-22T11:44:48.925Z,49.40
2018-12-22T11:47:31.819Z,49.40
2018-12-22T11:49:59.473Z,49.30
2018-12-22T11:52:27.861Z,49.40
2018-12-22T11:54:55.461Z,49.30
2018-12-22T11:57:24.335Z,49.20
2018-12-22T11:59:52.525Z,49.20
2018-12-22T12:02:20.527Z,49.20
2018-12-22T12:04:48.067Z,49.10
2018-12-22T12:07:15.726Z,49.10
2018-12-22T12:09:46.519Z,49.20
2018-12-22T12:12:14.590Z,49.00
2018-12-22T12:14:43.068Z,49.20
2018-12-22T12:17:27.131Z,49.10
2018-12-22T12:19:54.699Z,49.20
2018-12-22T12:22:22.863Z,49.20
2018-12-22T12:24:51.630Z,49.20
2018-12-22T12:27:19.718Z,49.20
2018-12-22T12:29:47.336Z,49.30
2018-12-22T12:32:15.004Z,49.40
2018-12-22T12:34:42.639Z,49.40
2018-12-22T12:37:10.130Z,49.50
2018-12-22T12:39:37.789Z,49.50
2018-12-22T12:42:05.351Z,49.60
2018-12-22T12:44:33.208Z,49.70
2018-12-22T12:47:00.918Z,49.70
2018-12-22T12:49:28.455Z,49.80
2018-12-22T12:51:57.029Z,49.80
2018-12-22T12:54:24.646Z,49.80
2018-12-22T12:56:56.399Z,49.80
2018-12-22T12:59:24.763Z,49.70
2018-12-22T13:02:00.728Z,49.80
2018-12-22T13:04:21.962Z,49.90
2018-12-22T13:06:49.472Z,49.80
2018-12-22T13:09:17.001Z,49.80
2018-12-22T13:11:44.744Z,49.70
2018-12-22T13:14:16.205Z,49.70
2018-12-22T13:16:43.831Z,49.60
2018-12-22T13:19:11.375Z,49.60
2018-12-22T13:21:40.933Z,49.60
2018-12-22T13:24:08.550Z,49.60
2018-12-22T13:26:36.951Z,49.60
2018-12-22T13:29:04.942Z,49.50
2018-12-22T13:31:32.654Z,49.50
2018-12-22T13:34:00.215Z,49.50
2018-12-22T13:36:34.523Z,49.50
2018-12-22T13:39:02.523Z,49.40
2018-12-22T13:41:30.276Z,49.50
2018-12-22T13:43:58.106Z,49.40
2018-12-22T13:46:25.680Z,49.50
2018-12-22T13:48:53.472Z,49.50
2018-12-22T13:51:21.517Z,49.50
2018-12-22T13:53:49.137Z,49.40
2018-12-22T13:56:16.683Z,49.40
2018-12-22T13:58:44.638Z,49.40
2018-12-22T14:01:14.892Z,49.30
2018-12-22T14:03:46.028Z,49.20
2018-12-22T14:06:17.545Z,49.20
2018-12-22T14:08:45.191Z,49.30
2018-12-22T14:11:12.704Z,49.40
2018-12-22T14:13:41.478Z,49.50
2018-12-22T14:16:15.070Z,50.30
2018-12-22T14:18:50.101Z,49.70
2018-12-22T14:21:17.978Z,49.60
2018-12-22T14:23:55.075Z,49.50
2018-12-22T14:26:22.626Z,49.60
2018-12-22T14:28:50.250Z,49.70
2018-12-22T14:31:18.663Z,49.80
2018-12-22T14:33:46.399Z,49.70
2018-12-22T14:36:14.571Z,49.70
2018-12-22T14:38:42.595Z,49.80
2018-12-22T14:41:12.999Z,50.00
2018-12-22T14:43:40.535Z,49.90
2018-12-22T14:46:08.764Z,49.90
2018-12-22T14:48:37.004Z,49.90
2018-12-22T14:51:05.580Z,49.80
2018-12-22T14:53:35.902Z,49.90
2018-12-22T14:56:04.285Z,49.90
2018-12-22T14:58:34.773Z,49.90
2018-12-22T15:01:04.082Z,50.00
2018-12-22T15:03:32.272Z,50.00
2018-12-22T15:05:59.916Z,50.00
2018-12-22T15:08:28.244Z,50.10
2018-12-22T15:10:56.597Z,50.10
2018-12-22T15:13:24.255Z,50.00
2018-12-22T15:15:52.072Z,50.00
2018-12-22T15:18:19.766Z,50.00
2018-12-22T15:20:47.391Z,50.00
2018-12-22T15:23:15.346Z,50.00
2018-12-22T15:25:43.170Z,50.00
2018-12-22T15:28:12.521Z,50.00
2018-12-22T15:30:41.922Z,50.00
2018-12-22T15:33:10.065Z,50.00
2018-12-22T15:35:38.072Z,50.20
2018-12-22T15:38:05.852Z,50.10
2018-12-22T15:40:33.482Z,50.10
2018-12-22T15:43:01.104Z,49.90
2018-12-22T15:45:28.639Z,49.90
2018-12-22T15:47:56.261Z,49.80
2018-12-22T15:50:26.071Z,49.80
2018-12-22T15:52:53.989Z,49.80
2018-12-22T15:55:21.701Z,49.80
2018-12-22T15:57:49.399Z,49.80
2018-12-22T16:00:17.152Z,49.80
2018-12-22T16:02:53.113Z,49.80
2018-12-22T16:05:15.710Z,49.80
2018-12-22T16:07:43.447Z,49.80
2018-12-22T16:10:12.195Z,49.80
2018-12-22T16:12:39.915Z,49.80
2018-12-22T16:15:10.618Z,49.80
2018-12-22T16:17:38.844Z,49.80
2018-12-22T16:20:08.078Z,49.80
2018-12-22T16:22:36.845Z,49.90
2018-12-22T16:25:11.420Z,49.80
2018-12-22T16:27:35.876Z,49.80
2018-12-22T16:30:05.966Z,49.90
2018-12-22T16:32:33.579Z,49.80
2018-12-22T16:35:01.192Z,49.90
2018-12-22T16:37:28.778Z,49.80
2018-12-22T16:39:57.302Z,49.90
2018-12-22T16:42:25.047Z,49.90
2018-12-22T16:44:52.725Z,49.90
2018-12-22T16:47:20.426Z,49.80
2018-12-22T16:49:48.023Z,49.90
2018-12-22T16:52:15.604Z,49.90
2018-12-22T16:54:43.183Z,49.90
2018-12-22T16:57:10.736Z,49.80
2018-12-22T16:59:39.207Z,49.80
2018-12-22T17:03:11.485Z,49.90
2018-12-22T17:05:39.318Z,49.90
2018-12-22T17:08:06.887Z,49.90
2018-12-22T17:10:43.468Z,49.90
2018-12-22T17:13:12.370Z,49.80
2018-12-22T17:15:44.539Z,49.90
2018-12-22T17:18:12.159Z,49.90
2018-12-22T17:20:39.894Z,49.80
2018-12-22T17:23:30.007Z,49.80
2018-12-22T17:26:01.075Z,49.80
2018-12-22T17:28:28.719Z,49.90
2018-12-22T17:30:56.476Z,49.90
2018-12-22T17:33:24.160Z,49.90
2018-12-22T17:35:51.719Z,49.90
2018-12-22T17:38:20.710Z,49.90
2018-12-22T17:40:48.669Z,49.90
2018-12-22T17:43:16.295Z,49.90
2018-12-22T17:45:43.851Z,49.90
2018-12-22T17:48:11.531Z,49.90
2018-12-22T17:50:39.438Z,49.90
2018-12-22T17:53:07.003Z,50.00
2018-12-22T17:55:34.522Z,49.90
2018-12-22T17:58:02.082Z,49.90
2018-12-22T18:00:29.681Z,50.00
2018-12-22T18:02:57.351Z,50.00
2018-12-22T18:05:25.060Z,49.90
2018-12-22T18:07:52.651Z,50.00
2018-12-22T18:10:20.188Z,50.00
2018-12-22T18:12:47.727Z,50.00
2018-12-22T18:15:18.242Z,49.90
2018-12-22T18:17:45.967Z,49.90
2018-12-22T18:20:13.599Z,49.90
2018-12-22T18:22:41.615Z,49.90
2018-12-22T18:25:10.798Z,50.00
2018-12-22T18:27:38.715Z,50.50
2018-12-22T18:30:08.946Z,50.00
2018-12-22T18:32:36.579Z,50.00
2018-12-22T18:35:04.444Z,49.90
2018-12-22T18:37:32.052Z,49.90
2018-12-22T18:39:59.623Z,49.90
2018-12-22T18:42:27.700Z,49.90
2018-12-22T18:44:55.465Z,49.90
2018-12-22T18:47:23.089Z,49.90
2018-12-22T18:49:50.735Z,49.90
2018-12-22T18:52:18.263Z,49.90
2018-12-22T18:54:46.156Z,49.90
2018-12-22T18:57:13.739Z,49.90
2018-12-22T18:59:41.440Z,50.00
2018-12-22T19:02:09.018Z,49.90
2018-12-22T19:04:36.758Z,49.90
2018-12-22T19:07:04.378Z,49.90
2018-12-22T19:09:33.963Z,49.90
2018-12-22T19:12:06.450Z,49.90
2018-12-22T19:14:34.016Z,49.90
2018-12-22T19:17:01.766Z,49.90
2018-12-22T19:19:29.312Z,49.90
2018-12-22T19:21:57.177Z,49.90
2018-12-22T19:24:24.713Z,49.90
2018-12-22T19:26:52.314Z,49.90
2018-12-22T19:29:19.935Z,49.90
2018-12-22T19:31:47.514Z,49.90
2018-12-22T19:34:15.173Z,49.90
2018-12-22T19:36:42.774Z,49.80
2018-12-22T19:39:10.337Z,49.80
2018-12-22T19:41:38.259Z,49.80
2018-12-22T19:44:05.873Z,49.80
2018-12-22T19:46:33.451Z,49.80
2018-12-22T19:49:01.051Z,49.80
2018-12-22T19:51:28.686Z,49.80
2018-12-22T19:53:57.326Z,49.80
2018-12-22T19:56:25.071Z,49.80
2018-12-22T19:58:52.697Z,49.80
2018-12-22T20:01:20.302Z,49.80
2018-12-22T20:03:48.000Z,49.80
2018-12-22T20:06:15.777Z,49.80
2018-12-22T20:08:43.476Z,49.80
2018-12-22T20:11:11.352Z,49.80
2018-12-22T20:13:39.595Z,49.80
2018-12-22T20:16:09.076Z,49.80
2018-12-22T20:18:36.937Z,49.80
2018-12-22T20:21:04.577Z,49.70
2018-12-22T20:23:32.252Z,49.70
2018-12-22T20:25:59.775Z,49.70
2018-12-22T20:28:27.508Z,49.70
2018-12-22T20:30:55.127Z,49.70
2018-12-22T20:33:22.840Z,49.70
2018-12-22T20:35:50.523Z,49.70
2018-12-22T20:38:18.068Z,50.30
2018-12-22T20:40:45.708Z,49.70
2018-12-22T20:43:13.495Z,49.70
2018-12-22T20:45:41.326Z,49.70
2018-12-22T20:48:09.036Z,49.70
2018-12-22T20:50:37.510Z,49.70
2018-12-22T20:53:06.347Z,49.70
2018-12-22T20:55:33.939Z,49.70
2018-12-22T20:58:01.560Z,49.70
2018-12-22T21:00:29.406Z,49.70
2018-12-22T21:02:57.148Z,49.70
2018-12-22T21:05:30.187Z,49.70
2018-12-22T21:07:57.870Z,49.70
2018-12-22T21:10:25.734Z,49.70
2018-12-22T21:12:53.395Z,49.70
2018-12-22T21:15:20.896Z,49.70
2018-12-22T21:17:48.597Z,49.70
2018-12-22T21:20:16.772Z,49.70
2018-12-22T21:22:44.646Z,49.70
2018-12-22T21:25:12.319Z,49.70
2018-12-22T21:27:40.229Z,49.70
2018-12-22T21:30:07.964Z,49.70
2018-12-22T21:32:35.816Z,49.70
2018-12-22T21:35:03.716Z,49.70
2018-12-22T21:37:32.414Z,49.70
2018-12-22T21:40:00.267Z,49.70
2018-12-22T21:42:27.918Z,49.70
2018-12-22T21:44:55.571Z,49.70
2018-12-22T21:47:23.243Z,49.70
2018-12-22T21:49:50.860Z,49.70
2018-12-22T21:52:18.372Z,49.80
2018-12-22T21:54:45.982Z,49.70
2018-12-22T21:57:13.657Z,49.70
2018-12-22T21:59:41.332Z,49.70
2018-12-22T22:02:08.887Z,49.70
2018-12-22T22:04:37.148Z,49.60
2018-12-22T22:07:05.061Z,49.70
2018-12-22T22:09:32.756Z,49.70
2018-12-22T22:12:01.367Z,49.60
2018-12-22T22:14:28.975Z,49.60
2018-12-22T22:16:56.605Z,49.60
2018-12-22T22:19:24.191Z,49.60
2018-12-22T22:21:51.786Z,49.70
2018-12-22T22:24:19.424Z,49.60
2018-12-22T22:26:47.062Z,49.60
2018-12-22T22:29:14.701Z,49.60
2018-12-22T22:31:42.374Z,49.70
2018-12-22T22:34:09.893Z,49.60
2018-12-22T22:36:37.658Z,49.60
2018-12-22T22:39:05.886Z,49.70
2018-12-22T22:41:33.512Z,49.70
2018-12-22T22:44:01.191Z,49.70
2018-12-22T22:46:28.797Z,49.60
2018-12-22T22:48:56.458Z,49.60
2018-12-22T22:51:24.013Z,49.70
2018-12-22T22:53:51.675Z,49.70
2018-12-22T22:56:19.319Z,49.70
2018-12-22T22:58:47.007Z,49.70
2018-12-22T23:01:14.842Z,49.70
2018-12-22T23:03:42.559Z,49.60
2018-12-22T23:06:10.138Z,50.20
2018-12-22T23:08:38.229Z,49.70
2018-12-22T23:11:05.791Z,49.70
2018-12-22T23:13:33.672Z,49.60
2018-12-22T23:16:01.211Z,49.70
2018-12-22T23:18:28.744Z,49.60
2018-12-22T23:20:56.309Z,49.60
2018-12-22T23:23:23.792Z,49.60
2018-12-22T23:25:51.499Z,49.60
2018-12-22T23:28:19.020Z,49.70
2018-12-22T23:30:46.559Z,49.70
2018-12-22T23:33:14.217Z,49.60
2018-12-22T23:35:41.896Z,49.60
2018-12-22T23:38:09.482Z,49.60
2018-12-22T23:40:37.247Z,49.60
2018-12-22T23:43:05.166Z,49.60
2018-12-22T23:45:32.872Z,49.60
2018-12-22T23:48:00.494Z,49.60
2018-12-22T23:50:28.169Z,49.60
2018-12-22T23:52:55.802Z,49.60
2018-12-22T23:55:23.680Z,49.60
2018-12-22T23:57:51.175Z,49.60
